createdAt,value
2022-08-11T00:02:28.346Z,2.77
2022-08-11T00:04:57.706Z,2.23
2022-08-11T00:07:26.240Z,2.33
2022-08-11T00:09:55.448Z,2.33
2022-08-11T00:12:23.415Z,2.63
2022-08-11T00:15:01.923Z,2.20
2022-08-11T00:17:32.367Z,2.43
2022-08-11T00:20:11.915Z,1.93
2022-08-11T00:22:45.756Z,2.20
2022-08-11T00:25:15.833Z,2.93
2022-08-11T00:27:43.815Z,2.50
2022-08-11T00:30:14.529Z,2.67
2022-08-11T00:32:45.031Z,2.53
2022-08-11T00:35:55.749Z,2.53
2022-08-11T00:38:07.479Z,2.83
2022-08-11T00:40:40.412Z,3.03
2022-08-11T00:43:21.375Z,2.70
2022-08-11T00:46:11.452Z,2.50
2022-08-11T00:48:51.261Z,2.70
2022-08-11T00:51:27.748Z,2.67
2022-08-11T00:54:39.968Z,2.73
2022-08-11T00:57:39.373Z,2.57
2022-08-11T01:00:13.750Z,2.10
2022-08-11T01:03:17.837Z,3.33
2022-08-11T01:06:22.736Z,2.40
2022-08-11T01:09:17.965Z,2.53
2022-08-11T01:12:10.317Z,2.60
2022-08-11T01:15:15.289Z,2.63
2022-08-11T01:18:22.747Z,3.80
2022-08-11T01:21:22.040Z,2.73
2022-08-11T01:24:27.841Z,3.03
2022-08-11T01:27:19.596Z,2.93
2022-08-11T01:30:11.329Z,3.77
2022-08-11T01:33:11.786Z,2.73
2022-08-11T01:36:38.860Z,2.77
2022-08-11T01:39:37.075Z,2.50
2022-08-11T01:43:02.853Z,3.30
2022-08-11T01:45:37.677Z,3.37
2022-08-11T01:48:15.915Z,3.17
2022-08-11T01:51:09.568Z,2.70
2022-08-11T01:53:53.840Z,3.00
2022-08-11T01:56:34.176Z,2.33
2022-08-11T01:59:11.139Z,3.00
2022-08-11T02:01:51.300Z,2.00
2022-08-11T02:04:30.807Z,3.00
2022-08-11T02:07:09.426Z,2.60
2022-08-11T02:09:57.260Z,2.50
2022-08-11T02:12:52.146Z,2.90
2022-08-11T02:15:28.114Z,3.17
2022-08-11T02:18:05.702Z,2.87
2022-08-11T02:20:52.182Z,2.73
2022-08-11T02:24:06.030Z,2.77
2022-08-11T02:26:36.714Z,3.13
2022-08-11T02:29:12.269Z,3.30
2022-08-11T02:32:25.554Z,2.53
2022-08-11T02:35:00.756Z,2.40
2022-08-11T02:37:37.977Z,2.47
2022-08-11T02:40:20.850Z,2.80
2022-08-11T02:43:03.479Z,2.60
2022-08-11T02:45:40.416Z,2.77
2022-08-11T02:48:35.313Z,2.90
2022-08-11T02:51:21.902Z,2.90
2022-08-11T02:53:59.070Z,3.40
2022-08-11T02:56:44.714Z,3.47
2022-08-11T02:59:41.727Z,2.90
2022-08-11T03:02:22.674Z,2.20
2022-08-11T03:05:02.369Z,2.80
2022-08-11T03:07:35.705Z,2.97
2022-08-11T03:10:10.868Z,3.10
2022-08-11T03:13:07.970Z,3.10
2022-08-11T03:16:03.642Z,3.30
2022-08-11T03:18:38.388Z,2.57
2022-08-11T03:21:14.400Z,2.83
2022-08-11T03:23:54.781Z,2.80
2022-08-11T03:26:29.044Z,3.20
2022-08-11T03:29:06.274Z,2.93
2022-08-11T03:31:42.573Z,3.00
2022-08-11T03:34:17.498Z,2.73
2022-08-11T03:37:33.791Z,3.23
2022-08-11T03:40:12.147Z,2.67
2022-08-11T03:42:47.031Z,2.97
2022-08-11T03:45:26.484Z,2.93
2022-08-11T03:48:05.200Z,2.60
2022-08-11T03:50:55.671Z,2.50
2022-08-11T03:53:39.618Z,3.07
2022-08-11T03:56:38.305Z,3.13
2022-08-11T03:59:25.673Z,2.50
2022-08-11T04:02:13.338Z,3.03
2022-08-11T04:05:21.814Z,2.50
2022-08-11T04:08:34.251Z,2.90
2022-08-11T04:11:40.808Z,2.67
2022-08-11T04:15:07.766Z,3.00
2022-08-11T04:18:29.135Z,2.80
2022-08-11T04:21:22.531Z,3.30
2022-08-11T04:24:34.607Z,3.40
2022-08-11T04:27:14.144Z,2.60
2022-08-11T04:30:05.551Z,3.33
2022-08-11T04:33:34.398Z,3.03
2022-08-11T04:36:21.171Z,3.17
2022-08-11T04:39:20.003Z,3.00
2022-08-11T04:42:33.312Z,2.87
2022-08-11T04:45:39.471Z,3.03
2022-08-11T04:48:46.268Z,3.10
2022-08-11T04:51:58.065Z,3.10
2022-08-11T04:55:00.079Z,3.07
2022-08-11T04:58:00.300Z,2.27
2022-08-11T05:00:49.502Z,3.17
2022-08-11T05:03:42.349Z,3.27
2022-08-11T05:06:45.591Z,2.67
2022-08-11T05:09:24.698Z,3.23
2022-08-11T05:12:07.217Z,3.23
2022-08-11T05:14:55.182Z,3.77
2022-08-11T05:17:46.495Z,3.47
2022-08-11T05:20:33.017Z,3.43
2022-08-11T05:23:24.176Z,3.10
2022-08-11T05:26:47.953Z,3.50
2022-08-11T05:29:45.378Z,3.20
2022-08-11T05:32:34.641Z,3.93
2022-08-11T05:35:07.365Z,3.50
2022-08-11T05:37:53.282Z,4.10
2022-08-11T05:40:38.600Z,3.80
2022-08-11T05:43:30.356Z,3.60
2022-08-11T05:46:16.688Z,3.83
2022-08-11T05:49:02.539Z,6.00
2022-08-11T05:51:55.457Z,3.70
2022-08-11T05:54:46.071Z,4.00
2022-08-11T05:57:49.448Z,3.50
2022-08-11T06:00:11.071Z,3.57
2022-08-11T06:02:43.129Z,3.60
2022-08-11T06:05:12.573Z,4.40
2022-08-11T06:07:49.274Z,4.57
2022-08-11T06:10:30.721Z,3.87
2022-08-11T06:13:02.762Z,4.07
2022-08-11T06:15:35.578Z,4.13
2022-08-11T06:18:04.324Z,4.27
2022-08-11T06:20:37.430Z,3.47
2022-08-11T06:23:07.575Z,3.10
2022-08-11T06:25:38.084Z,3.20
2022-08-11T06:28:08.028Z,3.60
2022-08-11T06:30:40.449Z,3.80
2022-08-11T06:33:11.736Z,3.67
2022-08-11T06:35:49.203Z,4.30
2022-08-11T06:38:30.827Z,3.90
2022-08-11T06:41:22.328Z,3.47
2022-08-11T06:43:56.350Z,3.73
2022-08-11T06:46:30.472Z,3.90
2022-08-11T06:49:02.366Z,4.73
2022-08-11T06:51:32.620Z,4.30
2022-08-11T06:54:04.353Z,4.40
2022-08-11T06:57:12.400Z,3.67
2022-08-11T06:59:59.772Z,4.20
2022-08-11T07:02:33.722Z,4.00
2022-08-11T07:05:08.171Z,4.30
2022-08-11T07:08:34.039Z,3.60
2022-08-11T07:11:37.768Z,4.30
2022-08-11T07:14:25.382Z,3.27
2022-08-11T07:16:54.680Z,3.90
2022-08-11T07:19:45.376Z,3.80
2022-08-11T07:22:46.533Z,3.73
2022-08-11T07:25:33.896Z,3.63
2022-08-11T07:28:21.761Z,3.53
2022-08-11T07:30:56.808Z,3.67
2022-08-11T07:34:07.243Z,3.07
2022-08-11T07:36:20.580Z,3.13
2022-08-11T07:38:52.564Z,3.70
2022-08-11T07:41:22.908Z,3.60
2022-08-11T07:43:53.749Z,3.40
2022-08-11T07:46:41.103Z,3.57
2022-08-11T07:49:28.233Z,3.37
2022-08-11T07:52:14.651Z,3.70
2022-08-11T07:54:43.823Z,3.60
2022-08-11T07:57:47.354Z,3.70
2022-08-11T08:00:38.881Z,3.60
2022-08-11T08:03:27.922Z,3.90
2022-08-11T08:06:22.234Z,3.30
2022-08-11T08:09:19.143Z,4.03
2022-08-11T08:12:05.672Z,3.60
2022-08-11T08:14:52.961Z,3.50
2022-08-11T08:17:39.716Z,3.90
2022-08-11T08:20:13.209Z,3.40
2022-08-11T08:22:43.996Z,4.37
2022-08-11T08:25:15.469Z,3.50
2022-08-11T08:27:43.506Z,4.03
2022-08-11T08:30:31.136Z,3.90
2022-08-11T08:33:00.941Z,3.60
2022-08-11T08:35:33.079Z,3.70
2022-08-11T08:38:01.834Z,3.70
2022-08-11T08:40:29.763Z,3.90
2022-08-11T08:43:00.523Z,4.37
2022-08-11T08:45:29.435Z,3.57
2022-08-11T08:48:01.742Z,3.50
2022-08-11T08:50:54.060Z,3.73
2022-08-11T08:53:24.149Z,3.47
2022-08-11T08:55:56.776Z,3.77
2022-08-11T08:58:25.539Z,3.30
2022-08-11T09:00:54.882Z,4.93
2022-08-11T09:03:41.852Z,3.50
2022-08-11T09:06:15.110Z,3.30
2022-08-11T09:08:43.203Z,3.30
2022-08-11T09:11:30.415Z,3.00
2022-08-11T09:14:05.086Z,3.37
2022-08-11T09:16:33.621Z,2.90
2022-08-11T09:19:01.844Z,2.50
2022-08-11T09:21:46.398Z,2.67
2022-08-11T09:24:35.118Z,3.27
2022-08-11T09:27:07.057Z,2.57
2022-08-11T09:29:35.640Z,2.40
2022-08-11T09:32:04.742Z,2.50
2022-08-11T09:34:36.512Z,3.50
2022-08-11T09:37:53.419Z,2.47
2022-08-11T09:40:33.726Z,2.60
2022-08-11T09:43:22.488Z,2.90
2022-08-11T09:45:52.412Z,2.10
2022-08-11T09:48:21.358Z,2.03
2022-08-11T09:50:52.349Z,2.40
2022-08-11T09:53:36.476Z,2.80
2022-08-11T09:56:22.283Z,2.20
2022-08-11T09:58:50.668Z,2.77
2022-08-11T10:01:28.945Z,2.33
2022-08-11T10:04:00.437Z,2.13
2022-08-11T10:06:47.653Z,1.77
2022-08-11T10:09:21.157Z,2.43
2022-08-11T10:11:57.961Z,1.93
2022-08-11T10:14:45.028Z,2.33
2022-08-11T10:17:15.587Z,1.80
2022-08-11T10:20:03.820Z,2.23
2022-08-11T10:22:50.426Z,2.03
2022-08-11T10:25:37.641Z,2.23
2022-08-11T10:28:30.800Z,2.30
2022-08-11T10:31:15.561Z,2.30
2022-08-11T10:34:01.530Z,2.13
2022-08-11T10:36:31.108Z,1.93
2022-08-11T10:39:00.383Z,2.00
2022-08-11T10:42:07.372Z,1.80
2022-08-11T10:44:39.123Z,2.20
2022-08-11T10:47:25.805Z,1.90
2022-08-11T10:50:08.781Z,2.40
2022-08-11T10:52:55.603Z,2.30
2022-08-11T10:55:42.083Z,1.90
2022-08-11T10:58:29.808Z,1.97
2022-08-11T11:00:58.940Z,2.30
2022-08-11T11:03:28.788Z,1.90
2022-08-11T11:06:27.549Z,1.90
2022-08-11T11:09:00.027Z,2.17
2022-08-11T11:11:53.767Z,2.30
2022-08-11T11:14:46.236Z,2.23
2022-08-11T11:17:37.611Z,2.43
2022-08-11T11:20:07.728Z,2.07
2022-08-11T11:22:42.376Z,2.13
2022-08-11T11:25:21.185Z,2.03
2022-08-11T11:28:09.023Z,2.20
2022-08-11T11:30:48.330Z,2.30
2022-08-11T11:33:23.103Z,2.33
2022-08-11T11:36:02.844Z,1.80
2022-08-11T11:38:30.812Z,2.23
2022-08-11T11:41:16.176Z,2.17
2022-08-11T11:43:46.659Z,2.30
2022-08-11T11:46:16.341Z,2.17
2022-08-11T11:48:44.813Z,2.67
2022-08-11T11:51:14.047Z,2.40
2022-08-11T11:53:45.051Z,2.20
2022-08-11T11:56:13.848Z,1.90
2022-08-11T11:58:59.633Z,2.43
2022-08-11T12:01:29.013Z,1.83
2022-08-11T12:03:58.706Z,2.47
2022-08-11T12:06:27.813Z,2.33
2022-08-11T12:08:58.671Z,2.90
2022-08-11T12:11:47.886Z,2.60
2022-08-11T12:14:18.274Z,2.30
2022-08-11T12:16:48.894Z,2.53
2022-08-11T12:19:18.689Z,3.13
2022-08-11T12:22:04.855Z,2.40
2022-08-11T12:24:52.866Z,3.03
2022-08-11T12:27:24.883Z,2.20
2022-08-11T12:29:56.968Z,2.40
2022-08-11T12:32:28.612Z,2.40
2022-08-11T12:34:57.687Z,2.50
2022-08-11T12:37:31.437Z,1.77
2022-08-11T12:40:49.542Z,2.23
2022-08-11T12:43:38.801Z,2.17
2022-08-11T12:46:15.144Z,2.40
2022-08-11T12:49:04.584Z,2.50
2022-08-11T12:52:01.543Z,2.10
2022-08-11T12:54:46.665Z,2.40
2022-08-11T12:57:36.604Z,2.50
2022-08-11T13:00:24.480Z,2.00
2022-08-11T13:03:10.516Z,2.47
2022-08-11T13:05:44.471Z,2.00
2022-08-11T13:08:13.886Z,2.30
2022-08-11T13:10:59.610Z,2.73
2022-08-11T13:13:54.032Z,2.60
2022-08-11T13:16:16.772Z,2.13
2022-08-11T13:18:45.492Z,2.50
2022-08-11T13:21:20.692Z,2.50
2022-08-11T13:24:01.656Z,2.50
2022-08-11T13:26:43.521Z,2.40
2022-08-11T13:29:22.294Z,2.63
2022-08-11T13:31:50.807Z,2.70
2022-08-11T13:34:20.495Z,2.87
2022-08-11T13:36:52.804Z,2.20
2022-08-11T13:39:21.480Z,2.40
2022-08-11T13:41:53.111Z,2.30
2022-08-11T13:44:25.661Z,2.20
2022-08-11T13:46:55.181Z,2.40
2022-08-11T13:49:23.488Z,2.60
2022-08-11T13:51:53.355Z,2.50
2022-08-11T13:54:24.651Z,2.40
2022-08-11T13:56:54.955Z,2.57
2022-08-11T13:59:29.876Z,2.83
2022-08-11T14:02:28.017Z,2.50
2022-08-11T14:04:55.173Z,2.60
2022-08-11T14:07:26.488Z,2.50
2022-08-11T14:09:58.353Z,2.87
2022-08-11T14:12:45.968Z,2.37
2022-08-11T14:15:19.754Z,2.80
2022-08-11T14:17:52.861Z,2.50
2022-08-11T14:20:39.619Z,2.30
2022-08-11T14:23:14.142Z,2.50
2022-08-11T14:26:02.878Z,2.60
2022-08-11T14:28:39.963Z,2.30
2022-08-11T14:31:10.386Z,2.10
2022-08-11T14:33:59.320Z,2.67
2022-08-11T14:36:29.524Z,2.70
2022-08-11T14:38:58.945Z,2.67
2022-08-11T14:42:11.324Z,2.43
2022-08-11T14:44:52.904Z,2.50
2022-08-11T14:47:23.932Z,3.00
2022-08-11T14:49:58.569Z,2.30
2022-08-11T14:52:41.038Z,2.43
2022-08-11T14:55:29.116Z,2.40
2022-08-11T14:57:57.539Z,2.20
2022-08-11T15:00:25.922Z,2.90
2022-08-11T15:03:11.244Z,2.50
2022-08-11T15:05:42.103Z,2.80
2022-08-11T15:08:41.552Z,2.37
2022-08-11T15:11:32.127Z,2.53
2022-08-11T15:14:01.258Z,2.47
2022-08-11T15:16:47.583Z,2.00
2022-08-11T15:19:16.637Z,2.20
2022-08-11T15:22:02.186Z,2.97
2022-08-11T15:24:30.670Z,2.43
2022-08-11T15:27:20.300Z,2.60
2022-08-11T15:30:07.405Z,2.33
2022-08-11T15:32:53.929Z,2.50
2022-08-11T15:35:39.965Z,2.53
2022-08-11T15:38:11.544Z,2.23
2022-08-11T15:40:59.247Z,2.90
2022-08-11T15:43:51.587Z,2.70
2022-08-11T15:46:23.941Z,2.50
2022-08-11T15:48:59.012Z,2.40
2022-08-11T15:51:34.056Z,2.43
2022-08-11T15:54:09.258Z,2.37
2022-08-11T15:56:41.074Z,2.27
2022-08-11T15:59:41.640Z,2.63
2022-08-11T16:02:31.872Z,2.10
2022-08-11T16:05:02.925Z,2.17
2022-08-11T16:07:40.393Z,2.40
2022-08-11T16:10:10.927Z,2.43
2022-08-11T16:13:20.135Z,1.80
2022-08-11T16:16:10.723Z,2.10
2022-08-11T16:18:47.138Z,2.70
2022-08-11T16:21:34.095Z,2.40
2022-08-11T16:24:06.966Z,2.53
2022-08-11T16:27:07.748Z,2.20
2022-08-11T16:29:28.093Z,2.40
2022-08-11T16:32:15.573Z,1.97
2022-08-11T16:35:02.112Z,2.40
2022-08-11T16:37:49.557Z,2.40
2022-08-11T16:40:19.591Z,2.30
2022-08-11T16:43:10.624Z,2.70
2022-08-11T16:45:58.477Z,2.83
2022-08-11T16:48:37.486Z,2.47
2022-08-11T16:51:08.567Z,1.97
2022-08-11T16:54:03.475Z,2.23
2022-08-11T16:56:30.430Z,2.27
2022-08-11T16:59:15.284Z,2.80
2022-08-11T17:01:46.884Z,2.57
2022-08-11T17:04:43.039Z,2.97
2022-08-11T17:07:41.464Z,2.67
2022-08-11T17:10:50.764Z,2.37
2022-08-11T17:13:26.946Z,2.47
2022-08-11T17:16:08.035Z,2.70
2022-08-11T17:18:45.019Z,2.10
2022-08-11T17:21:19.549Z,2.30
2022-08-11T17:23:50.318Z,2.83
2022-08-11T17:26:51.906Z,2.73
2022-08-11T17:29:22.730Z,2.27
2022-08-11T17:32:08.989Z,2.47
2022-08-11T17:34:54.434Z,2.60
2022-08-11T17:37:25.795Z,2.30
2022-08-11T17:39:55.735Z,2.27
2022-08-11T17:42:45.974Z,2.43
2022-08-11T17:45:32.389Z,2.33
2022-08-11T17:48:19.553Z,2.20
2022-08-11T17:50:49.161Z,3.03
2022-08-11T17:53:35.956Z,1.80
2022-08-11T17:56:34.450Z,2.03
2022-08-11T17:59:21.457Z,2.30
2022-08-11T18:01:54.081Z,2.23
2022-08-11T18:04:25.248Z,2.20
2022-08-11T18:06:55.312Z,2.00
2022-08-11T18:09:43.085Z,2.53
2022-08-11T18:12:29.192Z,2.77
2022-08-11T18:15:15.869Z,2.40
2022-08-11T18:18:02.478Z,2.53
2022-08-11T18:20:47.903Z,2.23
2022-08-11T18:23:45.933Z,2.33
2022-08-11T18:26:37.849Z,2.50
2022-08-11T18:29:26.053Z,2.50
2022-08-11T18:32:22.169Z,2.60
2022-08-11T18:35:10.071Z,2.20
2022-08-11T18:38:01.939Z,2.33
2022-08-11T18:40:48.153Z,2.63
2022-08-11T18:43:39.727Z,2.27
2022-08-11T18:46:28.204Z,2.63
2022-08-11T18:49:21.255Z,2.17
2022-08-11T18:52:11.041Z,2.47
2022-08-11T18:55:00.317Z,1.90
2022-08-11T18:57:49.498Z,2.33
2022-08-11T19:00:41.417Z,2.37
2022-08-11T19:03:28.633Z,2.40
2022-08-11T19:06:38.901Z,2.90
2022-08-11T19:09:26.203Z,2.70
2022-08-11T19:12:13.394Z,2.90
2022-08-11T19:15:07.143Z,3.33
2022-08-11T19:17:57.002Z,3.27
2022-08-11T19:20:45.920Z,2.80
2022-08-11T19:23:35.427Z,3.53
2022-08-11T19:26:22.383Z,2.73
2022-08-11T19:29:09.055Z,2.97
2022-08-11T19:32:15.303Z,2.70
2022-08-11T19:35:02.527Z,2.60
2022-08-11T19:37:48.470Z,2.57
2022-08-11T19:40:35.299Z,2.43
2022-08-11T19:43:25.614Z,3.07
2022-08-11T19:46:13.947Z,2.33
2022-08-11T19:49:01.459Z,2.77
2022-08-11T19:51:54.007Z,2.80
2022-08-11T19:54:42.465Z,2.90
2022-08-11T19:57:28.752Z,3.30
2022-08-11T20:00:14.791Z,3.50
2022-08-11T20:03:00.739Z,3.07
2022-08-11T20:05:55.525Z,2.63
2022-08-11T20:08:48.518Z,3.37
2022-08-11T20:11:35.960Z,3.03
2022-08-11T20:14:24.135Z,3.10
2022-08-11T20:17:11.693Z,3.13
2022-08-11T20:22:49.800Z,2.40
2022-08-11T20:25:37.885Z,2.80
2022-08-11T20:28:25.067Z,3.03
2022-08-11T20:31:12.253Z,2.83
2022-08-11T20:33:58.983Z,2.67
2022-08-11T20:36:48.731Z,3.30
2022-08-11T20:39:41.318Z,3.17
2022-08-11T20:42:30.771Z,3.03
2022-08-11T20:45:19.545Z,3.70
2022-08-11T20:48:15.049Z,2.87
2022-08-11T20:51:06.218Z,3.00
2022-08-11T20:53:54.143Z,2.90
2022-08-11T20:56:41.582Z,2.67
2022-08-11T20:59:33.177Z,3.10
2022-08-11T21:02:25.663Z,3.13
2022-08-11T21:05:13.107Z,2.87
2022-08-11T21:08:08.450Z,2.90
2022-08-11T21:10:59.195Z,2.87
2022-08-11T21:13:48.514Z,3.37
2022-08-11T21:16:47.463Z,3.23
2022-08-11T21:20:01.637Z,2.60
2022-08-11T21:22:59.484Z,3.30
2022-08-11T21:25:59.788Z,3.13
2022-08-11T21:28:45.679Z,2.80
2022-08-11T21:31:31.653Z,3.20
2022-08-11T21:34:19.132Z,2.83
2022-08-11T21:37:05.531Z,2.63
2022-08-11T21:39:53.199Z,2.80
2022-08-11T21:42:40.106Z,3.10
2022-08-11T21:45:27.459Z,3.67
2022-08-11T21:48:14.887Z,2.80
2022-08-11T21:51:01.964Z,3.90
2022-08-11T21:53:48.025Z,2.90
2022-08-11T21:56:34.287Z,3.13
2022-08-11T21:59:20.376Z,2.80
2022-08-11T22:02:10.555Z,3.30
2022-08-11T22:04:57.994Z,2.60
2022-08-11T22:07:45.077Z,2.60
2022-08-11T22:10:42.515Z,3.07
2022-08-11T22:13:30.180Z,3.10
2022-08-11T22:16:16.374Z,2.50
2022-08-11T22:19:02.782Z,2.73
2022-08-11T22:21:56.342Z,3.33
2022-08-11T22:24:52.081Z,2.33
2022-08-11T22:27:38.235Z,2.80
2022-08-11T22:30:25.058Z,3.30
2022-08-11T22:33:11.336Z,2.33
2022-08-11T22:35:58.109Z,2.60
2022-08-11T22:38:45.059Z,2.40
2022-08-11T22:41:32.303Z,3.30
2022-08-11T22:44:17.702Z,2.53
2022-08-11T22:47:03.674Z,2.77
2022-08-11T22:49:57.609Z,2.90
2022-08-11T22:52:44.701Z,2.93
2022-08-11T22:55:32.061Z,2.43
2022-08-11T22:58:21.249Z,2.40
2022-08-11T23:01:07.613Z,2.23
2022-08-11T23:03:53.814Z,2.60
2022-08-11T23:06:40.135Z,2.47
2022-08-11T23:09:27.061Z,2.37
2022-08-11T23:12:13.371Z,2.57
2022-08-11T23:15:00.599Z,2.40
2022-08-11T23:17:46.459Z,2.60
2022-08-11T23:20:44.670Z,2.10
2022-08-11T23:23:41.306Z,2.40
2022-08-11T23:26:28.559Z,2.33
2022-08-11T23:29:16.398Z,2.20
2022-08-11T23:32:04.938Z,2.60
2022-08-11T23:35:03.711Z,2.40
2022-08-11T23:37:52.542Z,2.73
2022-08-11T23:40:37.641Z,2.53
2022-08-11T23:43:23.625Z,2.63
2022-08-11T23:46:09.113Z,2.30
2022-08-11T23:48:56.704Z,2.33
2022-08-11T23:51:43.625Z,2.50
2022-08-11T23:54:36.458Z,2.20
2022-08-11T23:57:23.354Z,2.20
